Time;durP1;ratioP1;P1;durP2;ratioP2;P2;SDS_P1;SDS_P2;PMS_P1;PMS_P2;Temp;Humidity;BMP_temperature;BMP_pressure;BME280_temperature;BME280_humidity;BME280_pressure;Samples;Min_cycle;Max_cycle;Signal;HPM_P1;HPM_P2
2021/05/19 00:00:19;;;;;;;9.47;4.37;;;;;;;10.99;73.58;98222.31;125524;1099;103098;-74
2021/05/19 00:03:09;;;;;;;8.95;4.30;;;;;;;10.95;73.68;98218.23;125584;1105;103069;-74
2021/05/19 00:05:40;;;;;;;11.37;5.20;;;;;;;10.93;73.65;98219.36;125555;1104;103091;-74
2021/05/19 00:08:09;;;;;;;13.23;4.93;;;;;;;10.89;73.69;98215.28;125550;1100;103003;-74
2021/05/19 00:10:39;;;;;;;12.07;4.90;;;;;;;10.89;73.65;98217.94;125536;1100;103214;-74
2021/05/19 00:13:07;;;;;;;12.55;4.90;;;;;;;10.90;73.80;98219.63;125483;1104;103582;-73
2021/05/19 00:15:35;;;;;;;10.03;4.73;;;;;;;10.91;73.92;98231.95;125363;1107;103241;-76
2021/05/19 00:18:06;;;;;;;11.93;5.13;;;;;;;10.94;73.72;98234.34;125537;1104;103206;-76
2021/05/19 00:20:35;;;;;;;15.33;5.80;;;;;;;10.92;73.67;98228.31;125546;1104;103078;-75
2021/05/19 00:23:03;;;;;;;11.33;5.53;;;;;;;10.90;73.83;98232.93;125505;1104;103325;-73
2021/05/19 00:25:34;;;;;;;12.50;4.80;;;;;;;10.90;73.77;98222.28;125390;1107;103055;-75
2021/05/19 00:28:04;;;;;;;11.87;5.03;;;;;;;10.88;73.75;98222.41;125537;1104;103021;-74
2021/05/19 00:30:40;;;;;;;11.20;5.47;;;;;;;10.86;73.75;98225.21;125562;1099;103119;-73
2021/05/19 00:33:08;;;;;;;12.70;5.40;;;;;;;10.84;73.70;98211.20;125529;1104;102994;-74
2021/05/19 00:35:36;;;;;;;12.10;5.73;;;;;;;10.84;73.79;98221.84;125534;1104;103578;-74
2021/05/19 00:38:07;;;;;;;14.97;6.33;;;;;;;10.83;73.81;98222.81;125550;1104;103115;-74
2021/05/19 00:40:36;;;;;;;13.80;6.00;;;;;;;10.82;73.74;98225.59;125394;1107;103096;-75
2021/05/19 00:43:04;;;;;;;13.50;6.43;;;;;;;10.80;73.77;98224.92;125535;1100;103021;-76
2021/05/19 00:45:33;;;;;;;15.60;6.50;;;;;;;10.78;73.82;98226.88;125558;1104;103102;-74
2021/05/19 00:48:01;;;;;;;15.70;6.77;;;;;;;10.77;73.79;98226.02;125493;1104;103048;-75
2021/05/19 00:50:32;;;;;;;14.63;6.00;;;;;;;10.75;73.78;98230.62;125433;1105;103081;-73
2021/05/19 00:53:01;;;;;;;15.50;6.10;;;;;;;10.76;73.90;98234.14;125536;1104;103020;-74
2021/05/19 00:55:32;;;;;;;15.93;7.00;;;;;;;10.76;73.94;98219.00;125403;1099;103021;-75
2021/05/19 00:58:02;;;;;;;14.87;6.80;;;;;;;10.78;73.83;98225.03;125542;1104;103016;-74
2021/05/19 01:00:35;;;;;;;15.33;7.00;;;;;;;10.78;74.02;98232.19;125517;1104;103022;-75
2021/05/19 01:03:07;;;;;;;14.63;6.38;;;;;;;10.76;73.96;98229.64;125585;1104;103071;-75
2021/05/19 01:11:07;;;;;;;13.97;5.83;;;;;;;10.70;73.87;98239.02;125501;1104;103142;-73
2021/05/19 01:13:43;;;;;;;14.87;6.63;;;;;;;10.70;73.96;98224.86;125545;1099;103024;-73
2021/05/19 01:16:14;;;;;;;15.33;6.97;;;;;;;10.69;74.02;98226.69;125540;1100;103092;-76
2021/05/19 01:18:45;;;;;;;15.13;6.70;;;;;;;10.68;74.01;98232.98;125530;1104;103065;-73
2021/05/19 01:21:14;;;;;;;14.87;6.50;;;;;;;10.67;73.91;98233.95;125543;1104;103103;-75
2021/05/19 01:23:47;;;;;;;12.70;6.57;;;;;;;10.68;73.99;98240.10;125545;1100;103158;-75
2021/05/19 01:26:16;;;;;;;12.53;6.57;;;;;;;10.69;73.99;98244.45;125569;1104;102997;-74
2021/05/19 01:28:46;;;;;;;17.87;8.40;;;;;;;10.69;73.97;98239.98;125609;1104;102997;-75
2021/05/19 01:31:17;;;;;;;13.60;6.80;;;;;;;10.70;74.10;98246.99;125596;1104;103473;-74
2021/05/19 01:33:48;;;;;;;15.67;7.97;;;;;;;10.67;73.88;98249.05;125672;1100;103037;-75
2021/05/19 01:36:19;;;;;;;;;;;;;;;10.65;74.34;98232.38;125545;1104;103441;-75
2021/05/19 01:38:47;;;;;;;17.70;8.37;;;;;;;10.64;74.08;98236.88;125331;1107;103126;-75
2021/05/19 01:41:17;;;;;;;14.77;7.07;;;;;;;10.63;74.07;98243.17;125302;1107;103024;-74
2021/05/19 01:43:48;;;;;;;18.10;8.40;;;;;;;10.62;74.04;98229.98;126282;1107;103119;-73
2021/05/19 01:46:19;;;;;;;20.40;9.85;;;;;;;10.62;74.09;98233.50;125530;1104;103091;-73
2021/05/19 01:48:59;;;;;;;17.80;7.03;;;;;;;10.63;73.99;98243.17;125431;1104;103330;-73
2021/05/19 01:51:30;;;;;;;23.13;9.87;;;;;;;10.58;73.98;98240.06;125502;1104;103068;-73
2021/05/19 01:53:58;;;;;;;17.30;7.60;;;;;;;10.58;73.91;98240.06;125234;1105;103087;-72
2021/05/19 01:56:27;;;;;;;21.23;9.67;;;;;;;10.56;74.04;98252.64;125562;1104;103019;-73
2021/05/19 01:58:58;;;;;;;17.40;8.67;;;;;;;10.54;74.04;98250.13;125427;1104;103058;-74
2021/05/19 02:01:26;;;;;;;19.97;10.00;;;;;;;10.52;74.03;98248.56;125405;1104;103114;-73
2021/05/19 02:04:07;;;;;;;19.37;9.13;;;;;;;10.51;74.24;98246.88;125335;1100;103083;-72
2021/05/19 02:06:47;;;;;;;20.23;9.70;;;;;;;10.49;74.02;98243.50;125380;1104;103072;-74
2021/05/19 02:09:19;;;;;;;21.60;9.03;;;;;;;10.51;74.36;98257.51;125328;1099;103136;-74
2021/05/19 02:11:48;;;;;;;21.90;9.57;;;;;;;10.49;74.16;98252.34;125360;1104;103218;-73
2021/05/19 02:14:18;;;;;;;20.20;9.65;;;;;;;10.46;74.10;98257.06;127145;1107;102831;-73
2021/05/19 02:16:48;;;;;;;19.43;9.37;;;;;;;10.43;74.21;98251.03;126071;1104;101067;-74
2021/05/19 02:19:17;;;;;;;20.83;9.87;;;;;;;10.43;74.11;98251.03;125391;1107;103096;-74
2021/05/19 02:21:49;;;;;;;20.30;9.70;;;;;;;10.44;74.17;98257.20;125522;1104;102994;-75
2021/05/19 02:24:20;;;;;;;18.87;9.30;;;;;;;10.43;74.23;98252.86;125544;1104;103125;-73
2021/05/19 02:26:48;;;;;;;17.90;8.60;;;;;;;10.42;74.08;98259.98;125497;1100;104556;-74
2021/05/19 02:29:19;;;;;;;19.13;8.90;;;;;;;10.42;74.24;98259.98;125517;1100;103117;-74
2021/05/19 02:31:48;;;;;;;19.17;9.23;;;;;;;10.41;74.35;98254.80;125521;1104;103068;-75
2021/05/19 02:34:18;;;;;;;18.03;9.60;;;;;;;10.40;74.31;98253.95;125504;1104;103025;-74
2021/05/19 02:36:47;;;;;;;18.87;9.30;;;;;;;10.41;74.28;98255.63;125548;1100;103003;-75
2021/05/19 02:39:15;;;;;;;19.97;10.03;;;;;;;10.42;74.34;98246.68;125579;1104;103125;-74
2021/05/19 02:41:44;;;;;;;22.07;10.70;;;;;;;10.41;74.25;98246.83;125391;1107;103041;-73
2021/05/19 02:44:12;;;;;;;20.27;10.37;;;;;;;10.40;74.52;98253.95;125614;1100;103129;-73
2021/05/19 02:46:43;;;;;;;22.20;11.57;;;;;;;10.39;74.59;98262.06;125403;1105;103492;-73
2021/05/19 02:49:11;;;;;;;19.87;10.80;;;;;;;10.38;74.47;98261.20;125539;1104;103072;-73
2021/05/19 02:51:39;;;;;;;26.35;13.20;;;;;;;10.37;74.37;98258.66;125412;1105;103032;-73
2021/05/19 02:54:08;;;;;;;21.17;12.03;;;;;;;10.38;74.52;98263.86;125516;1104;103035;-75
2021/05/19 02:56:39;;;;;;;25.03;13.40;;;;;;;10.38;74.46;98276.30;125534;1104;102997;-71
2021/05/19 02:59:07;;;;;;;22.80;13.00;;;;;;;10.37;74.53;98262.18;125386;1107;103097;-72
2021/05/19 03:01:38;;;;;;;24.00;12.27;;;;;;;10.38;74.55;98268.33;125428;1100;103005;-69
2021/05/19 03:04:06;;;;;;;23.30;13.30;;;;;;;10.37;74.71;98271.95;125490;1104;103065;-74
2021/05/19 03:06:37;;;;;;;23.50;13.80;;;;;;;10.36;74.48;98268.47;125396;1100;103119;-72
2021/05/19 03:09:08;;;;;;;24.30;13.93;;;;;;;10.35;74.63;98264.13;125426;1107;103045;-74
2021/05/19 03:11:37;;;;;;;23.53;13.03;;;;;;;10.35;74.46;98265.92;125370;1107;103000;-74
2021/05/19 03:14:05;;;;;;;24.97;13.20;;;;;;;10.36;74.62;98275.58;125378;1107;103151;-72
2021/05/19 03:16:35;;;;;;;24.80;14.00;;;;;;;10.35;74.57;98274.76;125423;1107;103131;-75
2021/05/19 03:19:08;;;;;;;26.07;14.50;;;;;;;10.34;74.40;98275.73;125380;1107;103125;-76
2021/05/19 03:21:36;;;;;;;25.03;14.67;;;;;;;10.36;74.54;98268.47;125445;1100;102997;-74
2021/05/19 03:24:07;;;;;;;26.03;14.60;;;;;;;10.37;74.56;98282.59;125391;1107;102997;-75
2021/05/19 03:26:35;;;;;;;22.50;13.40;;;;;;;10.37;74.65;98280.79;125399;1107;102995;-72
2021/05/19 03:29:03;;;;;;;22.53;12.80;;;;;;;10.36;74.44;98284.42;125393;1099;103113;-77
2021/05/19 03:31:32;;;;;;;22.73;12.27;;;;;;;10.37;74.67;98285.24;125373;1107;103032;-75
2021/05/19 03:34:05;;;;;;;23.67;12.70;;;;;;;10.37;74.72;98283.45;125407;1107;102997;-75
2021/05/19 03:36:33;;;;;;;23.60;13.03;;;;;;;10.39;74.74;98294.80;125395;1107;103093;-76
2021/05/19 03:39:09;;;;;;;24.07;13.47;;;;;;;10.38;74.61;98290.45;125388;1107;103080;-75
2021/05/19 03:41:39;;;;;;;24.43;13.23;;;;;;;10.38;74.70;98303.73;125404;1100;103040;-76
2021/05/19 03:44:10;;;;;;;23.23;13.50;;;;;;;10.39;74.49;98299.28;125386;1100;103129;-75
2021/05/19 03:46:39;;;;;;;22.17;12.73;;;;;;;10.39;74.68;98300.11;125430;1100;102997;-76
2021/05/19 03:49:09;;;;;;;23.50;12.43;;;;;;;10.40;74.65;98308.95;125348;1107;103112;-76
2021/05/19 03:51:37;;;;;;;28.33;12.17;;;;;;;10.39;74.51;98318.72;125535;1104;103001;-76
2021/05/19 03:54:07;;;;;;;21.47;12.03;;;;;;;10.38;74.54;98316.17;125373;1107;103068;-76
2021/05/19 03:56:35;;;;;;;22.90;12.33;;;;;;;10.39;74.65;98323.20;125423;1104;103025;-76
2021/05/19 03:59:07;;;;;;;25.13;12.67;;;;;;;10.40;74.73;98336.36;125589;1099;102997;-77
2021/05/19 04:01:35;;;;;;;22.30;11.75;;;;;;;10.41;74.42;98330.07;125331;1100;102994;-78
2021/05/19 04:04:04;;;;;;;22.97;13.63;;;;;;;10.41;74.82;98331.91;125370;1107;103096;-78
2021/05/19 04:06:33;;;;;;;24.30;12.70;;;;;;;10.43;74.60;98328.13;125590;1104;103027;-73
2021/05/19 04:09:01;;;;;;;22.80;12.67;;;;;;;10.48;74.72;98345.52;125498;1104;103153;-75
2021/05/19 04:11:29;;;;;;;22.63;12.57;;;;;;;10.48;74.66;98343.72;125409;1107;103004;-74
2021/05/19 04:14:00;;;;;;;23.07;12.27;;;;;;;10.48;74.75;98346.38;125406;1100;103090;-73
2021/05/19 04:16:28;;;;;;;21.63;11.87;;;;;;;10.47;74.50;98335.84;125410;1107;102993;-75
2021/05/19 04:18:56;;;;;;;22.03;11.30;;;;;;;10.48;74.68;98348.17;125395;1107;102997;-77
2021/05/19 04:21:25;;;;;;;22.07;11.47;;;;;;;10.49;74.65;98349.86;125363;1100;103039;-75
2021/05/19 04:23:53;;;;;;;21.15;11.50;;;;;;;10.50;74.73;98356.86;125409;1099;103098;-74
2021/05/19 04:26:21;;;;;;;22.60;12.33;;;;;;;10.51;74.72;98350.58;125426;1104;103093;-77
2021/05/19 04:28:49;;;;;;;22.73;12.00;;;;;;;10.52;74.66;98355.78;125438;1107;103009;-76
2021/05/19 04:31:21;;;;;;;21.53;11.40;;;;;;;10.55;74.78;98352.86;125421;1100;103180;-76
2021/05/19 04:33:52;;;;;;;22.03;11.87;;;;;;;10.56;74.63;98356.35;125365;1100;103508;-76
2021/05/19 04:36:20;;;;;;;22.07;11.93;;;;;;;10.58;74.67;98357.06;125392;1107;103068;-75
2021/05/19 04:38:49;;;;;;;21.80;11.77;;;;;;;10.62;74.70;98360.30;125539;1104;103020;-75
2021/05/19 04:41:20;;;;;;;19.30;10.33;;;;;;;10.63;74.80;98360.19;125411;1107;103557;-75
2021/05/19 04:43:49;;;;;;;22.73;12.07;;;;;;;10.61;74.51;98351.50;125426;1107;103130;-75
2021/05/19 04:46:17;;;;;;;22.30;11.53;;;;;;;10.62;74.74;98358.50;125364;1100;103138;-73
2021/05/19 04:48:46;;;;;;;21.40;11.93;;;;;;;10.65;74.78;98354.72;125576;1104;103126;-74
2021/05/19 04:51:16;;;;;;;20.30;10.57;;;;;;;10.71;74.80;98359.53;125400;1107;103088;-74
2021/05/19 04:53:44;;;;;;;22.67;11.37;;;;;;;10.75;74.57;98368.11;125388;1107;103007;-82
2021/05/19 04:56:13;;;;;;;20.43;10.87;;;;;;;10.78;74.72;98366.02;125386;1107;103261;-78
2021/05/19 04:58:42;;;;;;;19.60;10.57;;;;;;;10.79;74.63;98367.70;125506;1104;103615;-77
2021/05/19 05:01:13;;;;;;;21.70;10.80;;;;;;;10.83;74.85;98378.92;125405;1107;103026;-78
2021/05/19 05:03:41;;;;;;;20.97;11.63;;;;;;;10.84;74.66;98369.97;125521;1100;103128;-78
2021/05/19 05:06:09;;;;;;;20.03;10.10;;;;;;;10.86;74.82;98376.86;125393;1107;103129;-78
2021/05/19 05:08:38;;;;;;;20.63;11.50;;;;;;;10.85;74.66;98368.99;125427;1107;103093;-78
2021/05/19 05:11:06;;;;;;;20.77;11.57;;;;;;;10.84;74.63;98378.80;125587;1104;103055;-78
2021/05/19 05:13:35;;;;;;;21.37;11.70;;;;;;;10.84;74.69;98373.48;125651;1100;102997;-77
2021/05/19 05:16:03;;;;;;;21.57;12.03;;;;;;;10.84;74.65;98373.48;125649;1104;103144;-77
2021/05/19 05:18:37;;;;;;;20.63;11.33;;;;;;;10.87;74.73;98375.03;125626;1104;103088;-78
2021/05/19 05:21:08;;;;;;;55.50;36.17;;;;;;;10.93;74.76;98373.68;125367;1107;103158;-77
2021/05/19 05:23:37;;;;;;;25.37;13.93;;;;;;;11.00;74.69;98391.64;125444;1100;103065;-79
2021/05/19 05:26:06;;;;;;;22.25;12.15;;;;;;;11.05;74.53;98382.42;125419;1104;103133;-77
2021/05/19 05:28:34;;;;;;;21.17;10.93;;;;;;;11.10;74.85;98381.05;125366;1104;103166;-77
2021/05/19 05:31:03;;;;;;;19.00;10.20;;;;;;;11.13;74.63;98387.94;125385;1104;103091;-78
2021/05/19 05:33:31;;;;;;;20.40;11.13;;;;;;;11.22;74.68;98386.30;125422;1105;103068;-77
2021/05/19 05:36:06;;;;;;;19.93;10.53;;;;;;;11.35;74.50;98380.73;125268;1107;103059;-78
2021/05/19 05:38:34;;;;;;;22.37;11.63;;;;;;;11.39;74.54;98393.67;125543;1107;103025;-77
2021/05/19 05:41:05;;;;;;;19.77;11.67;;;;;;;11.45;74.53;98382.45;125351;1100;103004;-77
2021/05/19 05:43:34;;;;;;;19.97;11.13;;;;;;;11.53;74.67;98381.81;125129;1107;103132;-78
2021/05/19 05:46:03;;;;;;;19.73;10.60;;;;;;;11.59;74.47;98383.08;125434;1104;103165;-78
2021/05/19 05:48:31;;;;;;;22.40;11.27;;;;;;;11.64;74.52;98380.00;125388;1100;103096;-79
2021/05/19 05:51:01;;;;;;;20.23;11.70;;;;;;;11.65;74.57;98379.88;125381;1107;103174;-82
2021/05/19 05:53:29;;;;;;;23.83;12.30;;;;;;;11.67;74.60;98383.25;125455;1100;102997;-78
2021/05/19 05:55:58;;;;;;;23.30;10.87;;;;;;;11.68;74.68;98389.41;125479;1107;102995;-79
2021/05/19 05:58:26;;;;;;;22.20;12.77;;;;;;;11.68;74.49;98389.41;125357;1107;103308;-81
2021/05/19 06:00:55;;;;;;;22.60;12.17;;;;;;;11.69;74.51;98383.96;125345;1107;103093;-77
2021/05/19 06:03:23;;;;;;;21.23;12.07;;;;;;;11.71;74.47;98386.47;125448;1104;103068;-77
2021/05/19 06:05:52;;;;;;;21.77;12.90;;;;;;;11.71;74.37;98389.14;125548;1100;103019;-78
2021/05/19 06:08:21;;;;;;;20.80;12.20;;;;;;;11.76;74.56;98400.23;125423;1104;103158;-78
2021/05/19 06:10:49;;;;;;;21.07;11.63;;;;;;;11.74;74.44;98394.20;125101;1107;103091;-78
2021/05/19 06:13:18;;;;;;;24.47;13.50;;;;;;;11.73;74.41;98395.17;125413;1104;103069;-79
2021/05/19 06:15:46;;;;;;;24.30;13.00;;;;;;;11.73;74.51;98397.84;125500;1104;103026;-78
2021/05/19 06:18:14;;;;;;;24.20;13.50;;;;;;;11.75;74.55;98388.75;125351;1100;103130;-78
2021/05/19 06:20:43;;;;;;;21.70;12.97;;;;;;;11.78;74.59;98389.46;125462;1099;102995;-78
2021/05/19 06:23:12;;;;;;;23.30;12.27;;;;;;;11.85;74.56;98387.91;125393;1107;103025;-77
2021/05/19 06:25:41;;;;;;;23.93;12.83;;;;;;;11.89;74.45;98386.66;125205;1100;103035;-79
2021/05/19 06:28:10;;;;;;;23.93;13.03;;;;;;;12.00;74.44;98386.58;125529;1104;103161;-77
2021/05/19 06:30:38;;;;;;;22.80;12.20;;;;;;;12.12;74.40;98386.47;125346;1104;102998;-78
2021/05/19 06:33:07;;;;;;;23.40;13.00;;;;;;;12.13;74.44;98394.31;125391;1100;103089;-78
2021/05/19 06:35:36;;;;;;;22.37;12.23;;;;;;;12.13;74.43;98393.48;125401;1107;103166;-78
2021/05/19 06:38:04;;;;;;;22.13;12.70;;;;;;;12.12;74.47;98391.80;125307;1107;103011;-78
2021/05/19 06:40:33;;;;;;;21.90;11.83;;;;;;;12.12;74.30;98407.80;125387;1105;103078;-78
2021/05/19 06:43:02;;;;;;;21.30;11.70;;;;;;;12.12;74.14;98395.29;125338;1107;103021;-79
2021/05/19 06:45:30;;;;;;;22.05;12.55;;;;;;;12.20;74.21;98395.45;125385;1104;103473;-80
2021/05/19 06:47:59;;;;;;;22.60;12.47;;;;;;;12.30;74.27;98386.63;125480;1100;103099;-79
2021/05/19 06:50:27;;;;;;;21.73;11.20;;;;;;;12.41;74.11;98398.97;125341;1107;103110;-79
2021/05/19 06:52:56;;;;;;;23.27;12.57;;;;;;;12.54;74.02;98399.55;125161;1107;103068;-79
2021/05/19 06:55:24;;;;;;;21.80;11.13;;;;;;;12.60;73.98;98398.13;125162;1107;103106;-79
2021/05/19 06:57:53;;;;;;;24.67;11.33;;;;;;;12.61;74.01;98389.14;125413;1107;103098;-80
2021/05/19 07:00:22;;;;;;;20.43;10.07;;;;;;;12.62;74.26;98394.35;125369;1100;103103;-79
2021/05/19 07:02:51;;;;;;;20.73;11.40;;;;;;;12.70;74.22;98390.97;125265;1107;103070;-80
2021/05/19 07:05:19;;;;;;;22.33;10.20;;;;;;;12.84;73.96;98389.68;125304;1107;103000;-78
2021/05/19 07:07:47;;;;;;;19.20;10.00;;;;;;;13.08;73.93;98389.21;125406;1107;103099;-79
2021/05/19 07:10:16;;;;;;;21.93;10.70;;;;;;;13.08;74.08;98399.89;125411;1107;103139;-77
2021/05/19 07:12:45;;;;;;;18.80;9.80;;;;;;;12.99;73.99;98398.08;125372;1107;103107;-79
2021/05/19 07:15:16;;;;;;;18.47;9.77;;;;;;;12.89;74.24;98398.11;125366;1100;103109;-79
2021/05/19 07:17:45;;;;;;;20.97;10.57;;;;;;;12.89;74.25;98407.92;125449;1107;103466;-80
2021/05/19 07:20:13;;;;;;;21.60;11.13;;;;;;;12.91;73.98;98400.62;125396;1100;103007;-80
2021/05/19 07:22:41;;;;;;;19.87;10.90;;;;;;;12.91;74.11;98406.81;125438;1100;103129;-80
2021/05/19 07:25:10;;;;;;;22.13;11.07;;;;;;;12.88;74.17;98398.23;125379;1107;103150;-79
2021/05/19 07:27:38;;;;;;;22.80;12.23;;;;;;;12.83;73.93;98401.34;125532;1104;103005;-77
2021/05/19 07:30:09;;;;;;;20.10;10.53;;;;;;;12.84;74.11;98392.34;125575;1100;103002;-79
2021/05/19 07:32:37;;;;;;;22.97;12.50;;;;;;;12.91;74.07;98395.28;125405;1107;103007;-78
2021/05/19 07:35:06;;;;;;;18.87;10.57;;;;;;;13.05;74.03;98401.98;125589;1104;103050;-77
2021/05/19 07:37:34;;;;;;;21.80;11.00;;;;;;;13.13;73.82;98398.63;125409;1105;103000;-77
2021/05/19 07:40:04;;;;;;;23.07;11.07;;;;;;;13.20;73.77;98400.55;125530;1104;103097;-77
2021/05/19 07:42:32;;;;;;;21.13;10.90;;;;;;;13.31;73.66;98391.52;125387;1104;103112;-78
2021/05/19 07:45:02;;;;;;;20.40;10.93;;;;;;;13.38;73.40;98391.80;125394;1105;103627;-77
2021/05/19 07:47:30;;;;;;;19.27;9.73;;;;;;;13.52;73.39;98390.50;125420;1105;103046;-77
2021/05/19 07:49:58;;;;;;;19.40;9.50;;;;;;;13.68;73.46;98400.55;125345;1100;103097;-78
2021/05/19 07:52:25;;;;;;;17.53;9.27;;;;;;;13.88;73.35;98398.63;125472;1104;103094;-77
2021/05/19 07:54:52;;;;;;;20.13;9.80;;;;;;;13.95;73.37;98398.86;125405;1107;103113;-76
2021/05/19 07:57:23;;;;;;;18.40;8.70;;;;;;;13.99;73.49;98400.24;125512;1104;103223;-75
2021/05/19 08:00:07;;;;;;;17.33;7.77;;;;;;;13.97;73.61;98396.88;125403;1100;103024;-73
2021/05/19 08:02:34;;;;;;;17.13;7.77;;;;;;;13.99;73.53;98403.77;125547;1104;103168;-75
2021/05/19 08:05:01;;;;;;;17.13;8.13;;;;;;;14.02;73.37;98412.48;125301;1105;103080;-78
2021/05/19 08:07:28;;;;;;;16.18;8.30;;;;;;;13.95;73.26;98404.20;125272;1107;103072;-78
2021/05/19 08:09:55;;;;;;;18.57;9.43;;;;;;;13.99;73.25;98403.77;125252;1107;103121;-76
2021/05/19 08:12:23;;;;;;;17.27;8.03;;;;;;;14.07;73.15;98404.83;125435;1104;103130;-75
2021/05/19 08:14:50;;;;;;;16.03;7.53;;;;;;;14.34;73.06;98397.77;125473;1104;103017;-76
2021/05/19 08:17:18;;;;;;;17.60;8.40;;;;;;;14.47;73.00;98402.73;125432;1100;103020;-75
2021/05/19 08:19:46;;;;;;;15.77;8.03;;;;;;;14.46;72.94;98401.91;125493;1104;103116;-77
2021/05/19 08:22:15;;;;;;;16.83;7.33;;;;;;;14.49;73.08;98406.09;125396;1100;103000;-77
2021/05/19 08:24:44;;;;;;;17.35;9.20;;;;;;;14.45;72.80;98402.91;125527;1104;103123;-78
2021/05/19 08:27:13;;;;;;;19.63;10.83;;;;;;;14.21;72.50;98404.32;125401;1107;103174;-76
2021/05/19 08:29:43;;;;;;;19.15;10.35;;;;;;;14.56;72.49;98396.47;125507;1100;103123;-76
2021/05/19 08:32:12;;;;;;;20.27;9.50;;;;;;;15.86;71.52;98387.73;125568;1104;103199;-75
2021/05/19 08:34:41;;;;;;;16.10;7.67;;;;;;;17.06;71.66;98381.19;125398;1100;103017;-75
2021/05/19 08:37:09;;;;;;;15.60;7.47;;;;;;;18.12;70.99;98384.55;125530;1104;103084;-75
2021/05/19 08:39:38;;;;;;;16.43;7.47;;;;;;;19.12;71.53;98381.95;125596;1104;103121;-74
2021/05/19 08:42:07;;;;;;;11.73;6.10;;;;;;;18.91;71.31;98388.02;125532;1104;103071;-76
2021/05/19 08:44:35;;;;;;;10.40;6.40;;;;;;;19.53;71.03;98383.35;125554;1104;102993;-76
2021/05/19 08:47:03;;;;;;;13.03;6.33;;;;;;;20.23;70.86;98383.81;125558;1104;103155;-76
2021/05/19 08:49:32;;;;;;;10.77;6.50;;;;;;;20.12;70.71;98383.48;125560;1104;103069;-77
2021/05/19 08:52:01;;;;;;;10.70;6.10;;;;;;;19.86;70.85;98391.04;125593;1104;103120;-75
2021/05/19 08:54:29;;;;;;;13.37;6.73;;;;;;;19.28;70.64;98393.56;125562;1104;103069;-77
2021/05/19 08:56:58;;;;;;;13.17;6.63;;;;;;;19.13;70.46;98388.16;125418;1105;103212;-78
2021/05/19 08:59:26;;;;;;;13.53;6.63;;;;;;;18.79;71.00;98390.28;125521;1100;103032;-76
2021/05/19 09:01:54;;;;;;;16.53;6.20;;;;;;;18.77;70.47;98392.31;125558;1104;103102;-77
2021/05/19 09:04:24;;;;;;;10.63;5.47;;;;;;;19.31;70.20;98391.36;125587;1104;102981;-75
2021/05/19 09:06:59;;;;;;;11.53;5.57;;;;;;;20.14;69.99;98387.69;125500;1104;103160;-75
2021/05/19 09:09:29;;;;;;;11.83;4.90;;;;;;;20.91;69.85;98390.73;125575;1100;103538;-75
2021/05/19 09:12:16;;;;;;;5.07;3.73;;;;;;;21.35;69.36;98402.30;125523;1099;103096;-75
2021/05/19 09:14:51;;;;;;;9.00;4.63;;;;;;;21.20;69.04;98396.15;125579;1104;103123;-75
2021/05/19 09:17:29;;;;;;;10.40;4.50;;;;;;;21.12;69.22;98387.15;125596;1104;103139;-77
2021/05/19 09:20:05;;;;;;;7.27;3.97;;;;;;;20.84;68.90;98383.61;125502;1104;103069;-76
2021/05/19 09:22:42;;;;;;;11.40;4.80;;;;;;;20.25;68.83;98389.04;125559;1104;102992;-74
2021/05/19 09:25:19;;;;;;;8.30;4.70;;;;;;;19.88;68.83;98398.96;125545;1104;103078;-75
2021/05/19 09:27:51;;;;;;;8.33;4.30;;;;;;;19.49;69.03;98401.78;125521;1104;103075;-77
2021/05/19 09:30:42;;;;;;;16.20;8.07;;;;;;;18.80;68.48;98418.89;125520;1104;103100;-76
2021/05/19 09:33:18;;;;;;;12.20;6.27;;;;;;;18.03;68.16;98419.73;125540;1104;103280;-74
2021/05/19 09:36:06;;;;;;;16.33;6.97;;;;;;;17.20;67.42;98418.13;125550;1104;103094;-74
2021/05/19 09:38:35;;;;;;;15.15;7.45;;;;;;;16.43;67.89;98418.43;125522;1104;103003;-76
2021/05/19 09:41:19;;;;;;;16.07;7.30;;;;;;;16.15;68.09;98427.59;125558;1104;103103;-76
2021/05/19 09:43:52;;;;;;;14.83;7.53;;;;;;;15.89;67.94;98435.71;125600;1104;103027;-77
2021/05/19 09:46:26;;;;;;;21.58;9.38;;;;;;;15.63;67.66;98420.50;125498;1104;103132;-76
2021/05/19 09:49:19;;;;;;;18.30;8.40;;;;;;;15.51;67.73;98427.95;125533;1104;103221;-74
2021/05/19 09:52:13;;;;;;;18.07;9.17;;;;;;;15.49;67.54;98435.30;125535;1104;103025;-74
2021/05/19 09:54:44;;;;;;;20.03;8.20;;;;;;;15.99;67.50;98416.80;125541;1100;103095;-76
2021/05/19 09:57:19;;;;;;;14.80;7.37;;;;;;;16.38;67.68;98424.28;125568;1104;103154;-75
2021/05/19 09:59:50;;;;;;;17.10;8.40;;;;;;;16.74;67.92;98413.23;125482;1104;103092;-75
2021/05/19 10:02:24;;;;;;;15.43;7.90;;;;;;;17.04;67.72;98408.24;125573;1104;103004;-77
2021/05/19 10:04:57;;;;;;;15.83;6.63;;;;;;;17.19;67.35;98408.39;125524;1100;103097;-77
2021/05/19 10:07:29;;;;;;;15.65;6.50;;;;;;;17.33;67.37;98409.53;125589;1100;103151;-77
2021/05/19 10:09:58;;;;;;;15.17;7.10;;;;;;;17.17;66.69;98409.55;125537;1104;103554;-77
2021/05/19 10:12:27;;;;;;;19.53;8.93;;;;;;;17.03;67.10;98400.34;125522;1104;103091;-78
2021/05/19 10:14:58;;;;;;;111.23;23.47;;;;;;;16.89;66.95;98409.89;125557;1104;103026;-77
2021/05/19 10:17:27;;;;;;;46.67;15.73;;;;;;;16.76;66.71;98415.77;125471;1100;103489;-76
2021/05/19 10:19:58;;;;;;;24.07;8.40;;;;;;;16.68;66.80;98416.62;125633;1099;103054;-77
2021/05/19 10:22:28;;;;;;;27.83;9.93;;;;;;;16.58;66.63;98400.65;125563;1104;103067;-76
2021/05/19 10:25:06;;;;;;;15.43;6.17;;;;;;;16.44;66.33;98412.06;125540;1100;103032;-75
2021/05/19 10:27:56;;;;;;;15.67;5.63;;;;;;;16.26;66.45;98413.02;125530;1099;103000;-76
2021/05/19 10:30:41;;;;;;;12.07;5.73;;;;;;;16.13;66.02;98416.18;125566;1100;103000;-74
2021/05/19 10:33:37;;;;;;;16.03;5.43;;;;;;;15.97;66.09;98416.12;125556;1104;103100;-74
2021/05/19 10:36:24;;;;;;;14.50;5.57;;;;;;;15.87;66.04;98419.80;125521;1104;102997;-76
2021/05/19 10:39:09;;;;;;;12.47;5.57;;;;;;;15.74;66.03;98408.64;125525;1104;103013;-77
2021/05/19 10:41:40;;;;;;;14.90;6.60;;;;;;;15.75;66.10;98413.00;125538;1100;103133;-75
2021/05/19 10:44:10;;;;;;;18.80;6.90;;;;;;;15.80;65.97;98412.50;125514;1104;103031;-77
2021/05/19 10:52:54;;;;;;;13.27;5.37;;;;;;;15.82;65.75;98414.05;125494;1104;103089;-76
2021/05/19 10:58:41;;;;;;;13.57;6.27;;;;;;;15.85;65.33;98403.00;125515;1104;103003;-75
2021/05/19 11:01:11;;;;;;;28.13;8.10;;;;;;;15.92;65.50;98406.72;125507;1100;103131;-75
2021/05/19 11:03:41;;;;;;;12.00;5.23;;;;;;;15.94;65.27;98422.66;125563;1104;103003;-76
2021/05/19 11:06:11;;;;;;;10.63;5.40;;;;;;;15.87;65.10;98417.11;125523;1104;103492;-77
2021/05/19 11:08:41;;;;;;;18.47;5.63;;;;;;;15.90;65.27;98421.30;125579;1104;103006;-76
2021/05/19 11:11:28;;;;;;;11.70;5.30;;;;;;;15.92;65.09;98420.13;125551;1100;103069;-76
2021/05/19 11:14:19;;;;;;;12.65;5.85;;;;;;;15.90;65.13;98416.77;125534;1104;103097;-76
2021/05/19 11:16:58;;;;;;;14.00;6.47;;;;;;;15.93;65.04;98427.17;125509;1100;103022;-76
2021/05/19 11:19:35;;;;;;;16.20;6.43;;;;;;;15.93;65.03;98423.66;125548;1104;102995;-75
2021/05/19 11:22:15;;;;;;;18.07;7.87;;;;;;;15.96;64.94;98422.48;125569;1104;103003;-76
2021/05/19 11:24:54;;;;;;;17.90;7.10;;;;;;;15.98;64.77;98420.48;125585;1104;103080;-75
2021/05/19 11:27:33;;;;;;;15.83;6.90;;;;;;;15.99;64.62;98430.20;125539;1104;102997;-75
2021/05/19 11:30:05;;;;;;;19.13;6.97;;;;;;;15.91;64.47;98431.03;125416;1104;103186;-77
2021/05/19 11:32:35;;;;;;;10.93;4.97;;;;;;;15.87;64.55;98426.98;125453;1104;103286;-76
2021/05/19 11:35:16;;;;;;;17.20;6.10;;;;;;;15.84;64.52;98425.45;125642;1104;103221;-74
2021/05/19 11:37:53;;;;;;;19.33;7.97;;;;;;;15.79;64.31;98427.77;125606;1100;103164;-76